Archival Weather

Norman Y Mineta San Jose Intl

San Jose, California (KSJC)

Report from: Saturday, February 17, 2024 9:53 AM PST
Current time: Friday, June 21, 2024 1:03 AM PDT

Current weather – Weather history – Daily summaries
Weather forecast

Present weatherLight rain
Temperature13.3°C (55.9°F)
Dew point9.4°C (48.9°F)
Winds 5 kts (2.6 m/s, 5.8 mph) Southeast (130°)
Visibility6 mi. (9.7 km)
Clouds Scattered clouds 2,500 ft. (762 m)
Ceiling: Broken clouds 6,500 ft. (1,981 m)
Overcast 8,000 ft. (2,438 m)
Altimeter29.99 in.Hg (1016 mB)
Precipitiation0.04 in. (1 mm)
Precip last 3 hours0.04 in. (1 mm)
Relative humidity77 %
Density altitude-114 ft. (-35 m)
Sea-level pressure101.6 kPa (1016 mB, 29.99 in.Hg)
Max temp last 6 hours14.4°C (57.9°F)
Min temp last 6 hours12.2°C (54.0°F)
Remarks Automated weather observing station with precipitation discriminator
Pressure rising, then falling
Flight conditions Visual Meteorological Conditions
Raw dataKSJC 171753Z 13005KT 6SM -RA SCT025 BKN065 OVC080 13/09 A2999 RMK AO2 SLP156 P0004 60004 T01330094 10144 20122 50005
An error has occurred. This application may no longer respond until reloaded. Reload 🗙